CheckWX is a tool to help pilots better visualize weather data.  It is not intended as a substitute for an official pre-flight weather briefing.

14:00:41 UTC

KDVL METAR
Devils Lake Regional Airport
Devils Lake, North Dakota, USA
Current

1 hour ago

KDVL 261256Z AUTO 32005KT 10SM CLR 03/M01 A3012 RMK AO2 SLP227 T00281011
Observed
Apr-26 @ 12:56 UTC
Wind
  • 320° at 5 KTS
Visibility
10 SM
Flight Rules
VFR
Cloud Levels
  • Clear skies
Temperature
C / 37°F
Dewpoint
-1°C / 30°F
Humidity
75%
Altimeter
30.12" Hg
Pressure
1020.02 hPa
Previous

2 hours ago

KDVL 261156Z AUTO 28008KT 10SM CLR M01/M02 A3012 RMK AO2 SLP226 T10061022 10011 21017 53008 FZRANO
Observed
Apr-26 @ 11:56 UTC
Wind
  • 280° at 8 KTS
Visibility
10 SM
Flight Rules
VFR
Cloud Levels
  • Clear skies
Temperature
-1°C / 30°F
Dewpoint
-2°C / 28°F
Humidity
93%
Altimeter
30.12" Hg
Pressure
1020.02 hPa
Previous

3 hours ago

KDVL 261056Z AUTO 28010KT 10SM CLR 00/M02 A3010 RMK AO2 SLP221 T00001017 FZRANO
Observed
Apr-26 @ 10:56 UTC
Wind
  • 280° at 10 KTS
Visibility
10 SM
Flight Rules
VFR
Cloud Levels
  • Clear skies
Temperature
C / 32°F
Dewpoint
-2°C / 28°F
Humidity
87%
Altimeter
30.1" Hg
Pressure
1019.32 hPa